Time;durP1;ratioP1;P1;durP2;ratioP2;P2;SDS_P1;SDS_P2;PMS_P1;PMS_P2;Temp;Humidity;BMP_temperature;BMP_pressure;BME280_temperature;BME280_humidity;BME280_pressure;Samples;Min_cycle;Max_cycle;Signal;HPM_P1;HPM_P2
2023/03/04 00:01:19;;;;;;;22.25;4.75;;;;;;;15.12;55.13;102490.75;5096948;28;20064;-54
2023/03/04 00:03:45;;;;;;;26.50;3.70;;;;;;;14.98;55.21;102489.69;5100721;28;20043;-47
2023/03/04 00:06:10;;;;;;;22.63;3.27;;;;;;;14.94;55.63;102492.97;5097299;28;20065;-48
2023/03/04 00:08:36;;;;;;;20.10;3.03;;;;;;;15.42;54.41;102503.38;5097650;28;20096;-53
2023/03/04 00:11:02;;;;;;;;;;;;;;;15.41;54.24;102499.00;5097768;28;20029;-50
2023/03/04 00:13:28;;;;;;;25.17;3.20;;;;;;;15.46;53.92;102499.28;5096850;28;19928;-51
2023/03/04 00:15:53;;;;;;;15.57;2.80;;;;;;;14.77;55.86;102491.28;5095572;28;20028;-51
2023/03/04 00:18:22;;;;;;;21.77;3.70;;;;;;;15.08;55.23;102504.78;5101587;28;20039;-50
2023/03/04 00:20:48;;;;;;;19.73;2.90;;;;;;;15.57;54.47;102497.94;5095993;28;20064;-52
2023/03/04 00:23:14;;;;;;;11.93;2.20;;;;;;;15.08;54.87;102494.81;5098391;28;20093;-53
2023/03/04 00:25:39;;;;;;;14.17;3.13;;;;;;;15.11;55.51;102493.63;5096225;28;20061;-48
2023/03/04 00:28:05;;;;;;;21.43;3.47;;;;;;;15.01;54.54;102494.75;5098735;28;20032;-53
2023/03/04 00:30:30;;;;;;;20.27;2.58;;;;;;;15.35;54.33;102489.81;5100600;28;20029;-55
2023/03/04 00:32:56;;;;;;;12.93;2.72;;;;;;;15.00;56.28;102485.00;5081410;28;20030;-54
2023/03/04 00:35:22;;;;;;;13.07;2.58;;;;;;;15.13;55.69;102491.56;5102212;28;20044;-51
2023/03/04 00:37:48;;;;;;;12.17;2.40;;;;;;;14.82;55.83;102489.88;5096768;28;20024;-52
2023/03/04 00:40:15;;;;;;;14.50;2.13;;;;;;;14.84;57.93;102487.84;5099857;28;20062;-55
2023/03/04 00:42:40;;;;;;;23.67;2.93;;;;;;;14.85;57.66;102484.94;5097737;28;20054;-53
2023/03/04 00:45:06;;;;;;;14.23;3.00;;;;;;;14.82;56.44;102497.97;5099875;28;20024;-52
2023/03/04 00:47:32;;;;;;;15.02;2.65;;;;;;;14.74;56.33;102488.91;5085082;28;20029;-51
2023/03/04 00:49:57;;;;;;;18.57;2.20;;;;;;;14.49;56.09;102489.13;5078250;28;20046;-51
2023/03/04 00:52:23;;;;;;;13.67;3.00;;;;;;;14.85;57.04;102490.34;5095814;28;20284;-48
2023/03/04 00:54:48;;;;;;;14.83;2.17;;;;;;;14.87;58.74;102492.84;5080698;28;20056;-55
2023/03/04 00:57:14;;;;;;;14.27;3.20;;;;;;;14.68;58.68;102497.72;5101676;28;20061;-51
2023/03/04 00:59:39;;;;;;;16.73;2.50;;;;;;;14.91;56.54;102486.94;5080986;28;20032;-53
2023/03/04 01:02:05;;;;;;;21.20;3.03;;;;;;;14.83;56.28;102491.56;5104013;28;20088;-51
2023/03/04 01:04:31;;;;;;;;;;;;;;;14.69;56.77;102483.22;5098800;28;20036;-50
2023/03/04 01:06:58;;;;;;;14.60;2.63;;;;;;;14.71;56.53;102496.56;5080673;28;19909;-48
2023/03/04 01:09:25;;;;;;;16.90;2.53;;;;;;;14.84;56.88;102488.66;5101807;28;20047;-49
2023/03/04 01:11:51;;;;;;;17.92;3.00;;;;;;;14.92;56.08;102490.44;5082707;28;20043;-52
2023/03/04 01:14:17;;;;;;;14.02;1.75;;;;;;;15.27;55.55;102498.84;5078338;28;20029;-48
2023/03/04 01:16:43;;;;;;;21.55;3.20;;;;;;;15.29;55.56;102496.78;5100034;28;20040;-50
2023/03/04 01:19:09;;;;;;;19.77;3.72;;;;;;;15.21;55.83;102494.16;5099086;28;20032;-48
2023/03/04 01:21:35;;;;;;;15.88;2.03;;;;;;;14.66;57.09;102475.53;5102556;28;20024;-53
2023/03/04 01:24:00;;;;;;;17.50;2.20;;;;;;;14.78;57.75;102486.72;5077433;28;20104;-48
2023/03/04 01:26:26;;;;;;;26.00;3.47;;;;;;;15.17;56.37;102484.78;5083870;28;20024;-48
2023/03/04 01:28:51;;;;;;;15.20;2.80;;;;;;;15.30;56.34;102484.13;5084480;28;20055;-52
2023/03/04 01:31:17;;;;;;;11.93;2.57;;;;;;;15.04;56.71;102488.97;5096261;28;20032;-53
2023/03/04 01:33:43;;;;;;;22.17;3.20;;;;;;;14.88;57.61;102484.59;5108382;28;20029;-52
2023/03/04 01:36:08;;;;;;;18.77;2.70;;;;;;;14.96;57.55;102478.28;5077053;28;20037;-49
2023/03/04 01:38:34;;;;;;;13.33;3.17;;;;;;;14.80;57.90;102475.78;5115762;28;20044;-49
2023/03/04 01:41:00;;;;;;;28.05;3.55;;;;;;;14.62;58.47;102476.91;5079832;28;20032;-49
2023/03/04 01:43:28;;;;;;;20.35;2.75;;;;;;;14.56;59.16;102461.50;5097403;28;20092;-47
2023/03/04 01:45:56;;;;;;;18.52;3.50;;;;;;;14.59;58.77;102466.50;5100439;28;20131;-50
2023/03/04 01:48:26;;;;;;;19.65;2.92;;;;;;;15.05;57.90;102462.84;5076555;28;20032;-49
2023/03/04 01:50:53;;;;;;;11.20;1.90;;;;;;;14.57;58.89;102450.53;5080113;28;20024;-53
2023/03/04 01:53:24;;;;;;;17.33;2.85;;;;;;;14.85;58.21;102457.19;5108308;28;20052;-49
2023/03/04 01:55:53;;;;;;;22.60;3.25;;;;;;;15.25;57.26;102455.06;5080134;28;20092;-51
2023/03/04 01:58:19;;;;;;;15.00;2.10;;;;;;;14.93;57.69;102454.41;5075734;28;20104;-52
2023/03/04 02:00:45;;;;;;;13.80;2.65;;;;;;;14.40;58.29;102451.69;5094840;28;20024;-51
2023/03/04 02:03:18;;;;;;;12.03;2.90;;;;;;;14.79;58.26;102449.88;5080569;28;20047;-50
2023/03/04 02:05:47;;;;;;;12.65;1.92;;;;;;;14.14;59.53;102445.69;5079617;28;20066;-53
2023/03/04 02:08:14;;;;;;;13.40;2.10;;;;;;;13.96;61.98;102443.28;5105121;28;20036;-46
2023/03/04 02:10:41;;;;;;;11.52;2.83;;;;;;;14.68;59.10;102445.72;5078011;28;20092;-50
2023/03/04 02:13:07;;;;;;;8.93;1.80;;;;;;;14.72;59.84;102439.81;5100266;28;20028;-50
2023/03/04 02:15:32;;;;;;;9.53;1.60;;;;;;;14.48;61.81;102436.28;5083301;28;20032;-51
2023/03/04 02:17:58;;;;;;;10.85;2.33;;;;;;;14.40;61.00;102430.16;5082473;28;20111;-51
2023/03/04 02:20:44;;;;;;;14.05;1.95;;;;;;;14.56;59.30;102431.88;5082508;28;20032;-49
2023/03/04 02:23:23;;;;;;;15.50;2.53;;;;;;;14.24;59.25;102429.28;5099803;28;20040;-50
2023/03/04 02:26:02;;;;;;;17.13;1.95;;;;;;;14.62;59.06;102428.44;5096111;28;20029;-52
2023/03/04 02:28:28;;;;;;;11.70;2.55;;;;;;;14.69;58.31;102424.00;5079971;28;20036;-48
2023/03/04 02:30:54;;;;;;;20.38;2.63;;;;;;;14.56;59.25;102421.94;5097583;28;20031;-50
2023/03/04 02:33:19;;;;;;;13.48;1.95;;;;;;;14.40;59.69;102422.06;5102425;28;20040;-51
2023/03/04 02:35:46;;;;;;;14.73;2.20;;;;;;;14.11;61.61;102416.44;5098081;28;20036;-49
2023/03/04 02:38:12;;;;;;;14.95;1.83;;;;;;;14.35;61.00;102414.56;5084848;28;20055;-49
2023/03/04 02:40:41;;;;;;;17.33;2.78;;;;;;;14.31;59.80;102408.69;5098052;28;20060;-49
2023/03/04 02:43:10;;;;;;;22.55;2.63;;;;;;;14.44;59.30;102418.84;5096678;28;20043;-47
2023/03/04 02:45:45;;;;;;;17.70;3.10;;;;;;;14.69;58.18;102407.81;5087550;28;20040;-53
2023/03/04 02:48:11;;;;;;;15.02;2.53;;;;;;;14.76;58.74;102410.66;5104400;28;20036;-48
2023/03/04 02:50:51;;;;;;;14.95;2.65;;;;;;;14.77;58.24;102410.50;5080730;28;20039;-50
2023/03/04 02:53:17;;;;;;;18.05;2.58;;;;;;;14.87;57.48;102406.66;5084007;28;20067;-54
2023/03/04 02:55:42;;;;;;;;;;;;;;;14.99;57.08;102413.28;5104623;28;20028;-51
2023/03/04 02:58:10;;;;;;;12.63;2.38;;;;;;;14.59;57.84;102405.41;5076307;28;19912;-51
2023/03/04 03:00:37;;;;;;;18.40;2.63;;;;;;;14.70;57.50;102406.00;5083232;28;20464;-49
2023/03/04 03:03:04;;;;;;;10.65;1.95;;;;;;;14.65;57.66;102401.16;5101305;28;20032;-51
2023/03/04 03:05:36;;;;;;;9.02;1.88;;;;;;;14.45;57.91;102408.94;5101163;28;20039;-50
2023/03/04 03:08:02;;;;;;;12.40;2.72;;;;;;;14.65;57.69;102406.53;5084039;28;20063;-52
2023/03/04 03:10:27;;;;;;;15.30;2.60;;;;;;;14.47;58.07;102405.00;5089976;28;20036;-49
2023/03/04 03:12:54;;;;;;;;;;;;;;;14.47;58.06;102396.94;5118362;28;20024;-51
2023/03/04 03:15:20;;;;;;;18.67;2.93;;;;;;;14.75;57.68;102399.03;5078656;28;19912;-51
2023/03/04 03:17:46;;;;;;;19.00;3.08;;;;;;;14.38;58.03;102391.81;5087223;28;20024;-50
2023/03/04 03:20:14;;;;;;;19.40;3.83;;;;;;;14.47;58.17;102396.94;5085457;28;20036;-53
2023/03/04 03:22:40;;;;;;;10.23;2.78;;;;;;;14.59;58.06;102394.63;5080933;28;20033;-49
2023/03/04 03:25:10;;;;;;;11.98;2.72;;;;;;;14.49;58.01;102392.22;5084057;28;20101;-50
2023/03/04 03:27:36;;;;;;;10.00;1.95;;;;;;;14.55;58.11;102389.81;5104081;28;20084;-51
2023/03/04 03:30:02;;;;;;;21.10;2.43;;;;;;;14.58;58.08;102386.75;5102295;28;20028;-49
2023/03/04 03:32:28;;;;;;;12.25;2.33;;;;;;;14.62;57.99;102386.19;5104944;28;20030;-54
2023/03/04 03:34:54;;;;;;;19.67;2.33;;;;;;;14.84;57.62;102388.19;5123262;28;20056;-50
2023/03/04 03:37:20;;;;;;;13.40;2.40;;;;;;;14.62;57.90;102375.41;5083167;28;20314;-51
2023/03/04 03:39:45;;;;;;;13.73;2.00;;;;;;;14.69;57.67;102380.09;5102638;28;20040;-48
2023/03/04 03:42:10;;;;;;;14.77;2.33;;;;;;;14.73;57.74;102373.34;5102213;28;20040;-50
2023/03/04 03:44:36;;;;;;;10.52;2.33;;;;;;;14.74;58.09;102383.09;5106700;28;20032;-48
2023/03/04 03:47:02;;;;;;;14.53;2.30;;;;;;;14.39;58.58;102380.03;5099658;28;20067;-52
2023/03/04 03:49:27;;;;;;;7.97;1.63;;;;;;;14.44;58.62;102389.25;5102409;28;20032;-49
2023/03/04 03:51:53;;;;;;;10.43;2.47;;;;;;;14.29;58.95;102381.13;5102500;28;20518;-47
2023/03/04 03:54:18;;;;;;;16.23;1.95;;;;;;;14.39;58.67;102386.25;5102660;28;20028;-51
2023/03/04 03:56:44;;;;;;;15.40;2.17;;;;;;;14.46;58.49;102384.50;5099943;28;20043;-53
2023/03/04 03:59:09;;;;;;;24.93;3.47;;;;;;;14.54;58.20;102385.47;5099091;28;20086;-47
2023/03/04 04:01:35;;;;;;;20.37;2.50;;;;;;;14.78;57.67;102387.06;5102219;28;20028;-52
2023/03/04 04:04:00;;;;;;;22.83;2.42;;;;;;;14.61;57.99;102383.69;5102255;28;20105;-47
2023/03/04 04:06:26;;;;;;;11.60;2.00;;;;;;;14.58;58.34;102386.75;5104374;28;20032;-50
2023/03/04 04:08:52;;;;;;;13.13;1.77;;;;;;;14.30;59.04;102385.50;5097421;28;20040;-50
2023/03/04 04:11:18;;;;;;;7.40;1.75;;;;;;;14.16;59.57;102384.47;5096082;28;20265;-52
2023/03/04 04:13:43;;;;;;;12.27;2.40;;;;;;;14.05;59.05;102379.50;5104379;28;20050;-50
2023/03/04 04:16:10;;;;;;;4.55;1.55;;;;;;;13.91;59.33;102394.56;5103007;28;20089;-49
2023/03/04 04:18:35;;;;;;;12.13;1.60;;;;;;;13.96;59.61;102377.91;5099251;28;20039;-47
2023/03/04 04:21:01;;;;;;;10.00;1.93;;;;;;;14.10;60.57;102390.56;5098707;28;20032;-50
2023/03/04 04:23:27;;;;;;;10.27;1.35;;;;;;;14.04;60.65;102392.13;5098013;28;20040;-48
2023/03/04 04:25:56;;;;;;;17.80;2.37;;;;;;;13.98;60.24;102390.16;5080320;28;20035;-48
2023/03/04 04:28:23;;;;;;;11.77;1.58;;;;;;;14.32;59.79;102388.84;5102046;28;20119;-51
2023/03/04 04:30:48;;;;;;;11.55;2.35;;;;;;;13.88;59.39;102387.72;5100240;28;20036;-50
2023/03/04 04:33:15;;;;;;;11.40;1.60;;;;;;;14.18;60.19;102393.19;5104605;28;20050;-51
2023/03/04 04:35:41;;;;;;;15.88;1.58;;;;;;;13.95;60.59;102395.06;5100920;28;20040;-49
2023/03/04 04:38:07;;;;;;;10.30;2.47;;;;;;;14.51;58.81;102385.81;5082207;28;20039;-47
2023/03/04 04:40:34;;;;;;;9.52;1.70;;;;;;;14.29;59.61;102394.59;5099932;28;20037;-48
2023/03/04 04:42:59;;;;;;;12.02;1.63;;;;;;;14.65;58.49;102395.75;5099675;28;20071;-52
2023/03/04 04:45:25;;;;;;;7.87;2.47;;;;;;;14.04;60.90;102391.28;5102016;28;20028;-49
2023/03/04 04:47:54;;;;;;;7.28;1.50;;;;;;;14.36;60.66;102394.72;5099787;28;20066;-49
2023/03/04 04:50:20;;;;;;;6.32;1.40;;;;;;;14.02;61.17;102404.06;5098446;28;20032;-49
2023/03/04 04:52:45;;;;;;;10.63;1.67;;;;;;;13.94;61.32;102406.81;5105172;28;20064;-54
2023/03/04 04:55:10;;;;;;;7.97;1.40;;;;;;;14.06;61.40;102405.38;5100288;28;20076;-49
2023/03/04 04:57:36;;;;;;;6.37;1.40;;;;;;;14.21;61.29;102397.38;5104132;28;20065;-52
2023/03/04 05:00:04;;;;;;;7.00;1.40;;;;;;;14.09;62.18;102407.72;5101392;28;20096;-47
2023/03/04 05:02:30;;;;;;;16.00;3.25;;;;;;;14.40;60.92;102396.00;5100055;28;20032;-49
2023/03/04 05:04:55;;;;;;;9.88;2.20;;;;;;;14.25;61.15;102397.81;5101242;28;20032;-51
2023/03/04 05:07:21;;;;;;;12.53;1.90;;;;;;;14.03;61.81;102400.34;5100115;28;20054;-48
2023/03/04 05:09:46;;;;;;;3.90;1.13;;;;;;;14.46;61.22;102394.44;5105736;28;20034;-49
2023/03/04 05:12:12;;;;;;;4.97;1.23;;;;;;;14.35;60.19;102393.03;5098561;28;20056;-48
2023/03/04 05:14:37;;;;;;;9.45;1.58;;;;;;;14.16;60.58;102392.53;5099611;28;20032;-51
2023/03/04 05:17:03;;;;;;;11.00;1.80;;;;;;;14.27;60.29;102398.47;5098573;28;20039;-50
2023/03/04 05:19:29;;;;;;;7.50;2.40;;;;;;;13.84;60.97;102399.00;5102185;28;20092;-52
2023/03/04 05:21:54;;;;;;;7.57;1.30;;;;;;;14.09;61.23;102396.97;5102552;28;20277;-48
2023/03/04 05:24:20;;;;;;;9.90;1.60;;;;;;;13.89;61.61;102397.44;5079199;28;20036;-50
2023/03/04 05:26:45;;;;;;;5.78;1.60;;;;;;;14.02;61.39;102396.00;5102691;28;20036;-51
2023/03/04 05:29:10;;;;;;;3.10;0.90;;;;;;;13.85;62.37;102401.50;5101373;28;20057;-51
2023/03/04 05:31:36;;;;;;;6.82;1.58;;;;;;;13.77;63.40;102394.34;5100440;28;20036;-48
2023/03/04 05:34:02;;;;;;;10.43;1.60;;;;;;;13.93;62.21;102395.22;5097261;28;20032;-50
2023/03/04 05:36:27;;;;;;;6.78;1.55;;;;;;;14.01;62.14;102402.38;5096063;28;20049;-52
2023/03/04 05:38:53;;;;;;;7.17;1.20;;;;;;;13.88;62.48;102403.84;5101599;28;20036;-51
2023/03/04 05:41:21;;;;;;;16.97;1.57;;;;;;;13.94;62.86;102401.44;5099788;28;20100;-51
2023/03/04 05:43:47;;;;;;;14.77;1.67;;;;;;;13.94;63.29;102396.88;5098175;28;20047;-51
2023/03/04 05:46:15;;;;;;;2.80;1.10;;;;;;;13.97;63.83;102401.94;5098277;28;20127;-53
2023/03/04 05:48:42;;;;;;;10.25;1.38;;;;;;;14.13;62.42;102403.66;5099476;28;20032;-50
2023/03/04 05:51:07;;;;;;;10.70;1.30;;;;;;;14.30;61.97;102395.41;5095800;28;20096;-50
2023/03/04 05:53:35;;;;;;;11.48;1.98;;;;;;;13.90;63.25;102398.28;5098503;28;20035;-51
2023/03/04 05:56:09;;;;;;;8.65;1.80;;;;;;;13.86;63.44;102400.50;5095785;28;20048;-50
2023/03/04 05:58:35;;;;;;;13.68;1.58;;;;;;;14.08;63.04;102400.69;5102255;28;20063;-51
2023/03/04 06:01:01;;;;;;;9.30;2.33;;;;;;;14.12;63.05;102399.28;5099858;28;20033;-47
2023/03/04 06:03:26;;;;;;;8.15;1.10;;;;;;;14.24;63.29;102404.22;5105031;28;20043;-48
2023/03/04 06:05:53;;;;;;;8.13;1.43;;;;;;;14.54;62.16;102401.63;5103020;28;20103;-49
2023/03/04 06:08:18;;;;;;;13.18;2.10;;;;;;;14.22;62.69;102401.72;5101596;28;20024;-48
2023/03/04 06:10:44;;;;;;;12.47;1.73;;;;;;;13.93;63.73;102402.47;5097412;28;20054;-50
2023/03/04 06:13:09;;;;;;;8.17;1.40;;;;;;;13.82;64.68;102398.34;5097601;28;20265;-47
2023/03/04 06:15:35;;;;;;;14.30;1.33;;;;;;;13.95;65.29;102408.50;5097423;28;20033;-47
2023/03/04 06:18:01;;;;;;;6.70;1.17;;;;;;;14.18;64.90;102412.00;5101225;28;20040;-51
2023/03/04 06:20:27;;;;;;;5.35;1.23;;;;;;;13.93;65.33;102407.84;5102505;28;20028;-52
2023/03/04 06:22:53;;;;;;;6.50;1.67;;;;;;;13.60;66.70;102407.03;5106744;28;20104;-50
2023/03/04 06:25:18;;;;;;;8.43;2.03;;;;;;;13.80;66.40;102411.13;5120906;28;20265;-54
2023/03/04 06:27:44;;;;;;;12.07;2.87;;;;;;;13.96;65.88;102412.84;5101773;28;20032;-51
2023/03/04 06:30:10;;;;;;;10.93;1.83;;;;;;;13.81;66.37;102410.13;5103086;28;20055;-50
2023/03/04 06:32:35;;;;;;;7.90;1.73;;;;;;;13.94;66.30;102415.72;5108004;28;20028;-52
2023/03/04 06:35:01;;;;;;;6.17;1.77;;;;;;;13.77;67.17;102412.31;5081870;28;20096;-52
2023/03/04 06:37:26;;;;;;;8.37;2.03;;;;;;;13.89;67.38;102410.03;5104873;28;20033;-51
2023/03/04 06:39:51;;;;;;;11.07;2.57;;;;;;;14.30;66.06;102408.88;5098889;28;20060;-46
2023/03/04 06:42:18;;;;;;;8.37;2.23;;;;;;;13.54;69.16;102405.06;5099132;28;20091;-51
2023/03/04 06:44:43;;;;;;;8.52;1.75;;;;;;;14.19;67.47;102413.69;5101596;28;20028;-51
2023/03/04 06:47:09;;;;;;;9.67;2.00;;;;;;;13.69;69.46;102412.38;5103915;28;20043;-50
2023/03/04 06:49:35;;;;;;;13.00;1.77;;;;;;;13.83;69.80;102414.28;5099400;28;20261;-51
2023/03/04 06:52:01;;;;;;;10.63;2.87;;;;;;;14.12;68.69;102420.81;5100119;28;20051;-51
2023/03/04 06:54:27;;;;;;;8.43;2.20;;;;;;;13.97;69.41;102407.31;5101148;28;20039;-46
2023/03/04 06:56:52;;;;;;;9.73;2.30;;;;;;;14.22;68.34;102414.34;5099678;28;20032;-50
2023/03/04 06:59:17;;;;;;;6.43;2.00;;;;;;;14.20;68.88;102417.22;5101463;28;20088;-49
2023/03/04 07:01:43;;;;;;;11.67;2.13;;;;;;;14.04;69.15;102415.47;5098763;28;20032;-47
2023/03/04 07:04:09;;;;;;;15.60;2.67;;;;;;;13.87;70.42;102415.63;5102980;28;20297;-50
2023/03/04 07:06:34;;;;;;;13.87;1.97;;;;;;;14.44;68.73;102412.66;5106000;28;20032;-50
2023/03/04 07:08:59;;;;;;;16.73;2.50;;;;;;;13.66;71.07;102410.03;5119205;28;20025;-52
2023/03/04 07:11:25;;;;;;;23.00;4.03;;;;;;;13.97;71.21;102411.84;5101363;28;20056;-50
2023/03/04 07:13:51;;;;;;;15.70;2.05;;;;;;;14.01;71.13;102418.53;5103011;28;20211;-51
2023/03/04 07:16:20;;;;;;;15.77;2.25;;;;;;;14.21;70.90;102418.91;5098933;28;20104;-50
2023/03/04 07:18:46;;;;;;;16.20;2.60;;;;;;;14.07;71.15;102423.22;5102399;28;20047;-50
2023/03/04 07:21:14;;;;;;;10.65;1.67;;;;;;;14.14;71.09;102421.47;5105903;28;20036;-47
2023/03/04 07:23:39;;;;;;;13.68;2.53;;;;;;;14.24;70.83;102423.91;5095365;28;20043;-52
2023/03/04 07:26:05;;;;;;;17.17;2.70;;;;;;;14.35;70.32;102422.63;5098573;28;20029;-51
2023/03/04 07:28:32;;;;;;;10.68;2.20;;;;;;;14.66;69.85;102432.44;5103514;28;20269;-50
2023/03/04 07:31:28;;;;;;;16.85;2.80;;;;;;;14.46;70.08;102432.13;5098558;28;20040;-50
2023/03/04 07:33:59;;;;;;;13.65;2.95;;;;;;;14.67;69.53;102428.72;5105086;28;20028;-48
2023/03/04 07:36:26;;;;;;;13.25;3.20;;;;;;;14.52;69.93;102430.53;5107022;28;20097;-48
2023/03/04 07:38:55;;;;;;;6.95;1.90;;;;;;;14.37;70.39;102438.59;5100160;28;20112;-52
2023/03/04 07:41:23;;;;;;;9.27;1.85;;;;;;;14.74;69.83;102440.44;5101088;28;20042;-51
2023/03/04 07:43:50;;;;;;;6.82;1.95;;;;;;;14.69;69.42;102442.00;5106438;28;20032;-49
2023/03/04 07:46:17;;;;;;;9.43;2.00;;;;;;;14.63;69.44;102435.50;5106068;28;20041;-50
2023/03/04 07:48:42;;;;;;;5.85;1.90;;;;;;;14.55;69.63;102443.66;5100861;28;20070;-50
2023/03/04 07:51:09;;;;;;;21.17;2.70;;;;;;;14.64;69.88;102445.25;5098455;28;20036;-48
2023/03/04 07:53:37;;;;;;;8.75;2.90;;;;;;;14.35;70.31;102449.56;5100831;28;20039;-50
2023/03/04 07:56:04;;;;;;;13.85;3.22;;;;;;;14.73;69.24;102444.16;5103784;28;20082;-51
2023/03/04 07:58:30;;;;;;;5.03;1.50;;;;;;;14.94;68.63;102456.06;5103757;28;20039;-50
2023/03/04 08:00:56;;;;;;;7.90;1.40;;;;;;;14.98;68.54;102443.91;5102085;28;20048;-51
2023/03/04 08:03:22;;;;;;;8.25;2.00;;;;;;;15.33;67.64;102449.56;5097723;28;20115;-53
2023/03/04 08:05:47;;;;;;;2.95;1.30;;;;;;;15.13;67.62;102448.47;5096409;28;20044;-50
2023/03/04 08:08:13;;;;;;;8.47;2.13;;;;;;;15.49;66.74;102453.09;5101929;28;20051;-54
2023/03/04 08:10:38;;;;;;;10.10;2.65;;;;;;;15.52;67.46;102463.50;5103558;28;20078;-52
2023/03/04 08:13:07;;;;;;;14.00;1.57;;;;;;;15.13;67.31;102448.47;5099140;28;20037;-47
2023/03/04 08:15:34;;;;;;;8.38;1.98;;;;;;;15.65;67.47;102457.41;5099430;28;20032;-48
2023/03/04 08:18:00;;;;;;;6.47;1.40;;;;;;;15.52;67.81;102460.78;5102136;28;20044;-50
2023/03/04 08:20:26;;;;;;;14.75;2.10;;;;;;;15.20;68.51;102460.16;5096998;28;20032;-51
2023/03/04 08:22:52;;;;;;;6.20;1.42;;;;;;;14.88;69.66;102451.44;5103718;28;20051;-49
2023/03/04 08:25:18;;;;;;;9.63;1.50;;;;;;;15.40;68.57;102452.34;5087498;28;20036;-53
2023/03/04 08:27:43;;;;;;;32.40;3.03;;;;;;;15.57;67.91;102460.19;5100772;28;20083;-53
2023/03/04 08:30:10;;;;;;;8.77;1.65;;;;;;;15.85;66.81;102467.59;5084563;28;20028;-53
2023/03/04 08:32:36;;;;;;;8.70;1.90;;;;;;;15.75;67.33;102462.50;5096784;28;20048;-50
2023/03/04 08:35:01;;;;;;;13.47;2.67;;;;;;;16.07;65.60;102463.06;5101455;28;20032;-50
2023/03/04 08:37:31;;;;;;;13.23;2.60;;;;;;;16.14;65.73;102471.22;5097681;28;20055;-45
2023/03/04 08:39:57;;;;;;;9.68;2.58;;;;;;;16.02;65.92;102468.22;5082528;28;20032;-51
2023/03/04 08:42:23;;;;;;;5.00;1.60;;;;;;;15.69;66.37;102463.28;5096813;28;20036;-53
2023/03/04 08:44:49;;;;;;;4.57;1.38;;;;;;;15.12;68.48;102468.34;5097287;28;20036;-50
2023/03/04 08:47:15;;;;;;;6.82;1.40;;;;;;;15.62;67.50;102468.59;5098357;28;20038;-51
2023/03/04 08:49:40;;;;;;;10.50;1.90;;;;;;;15.67;67.68;102468.00;5101026;28;20056;-53
2023/03/04 08:52:05;;;;;;;11.20;1.53;;;;;;;15.20;69.27;102461.00;5101019;28;20272;-52
2023/03/04 08:54:31;;;;;;;5.05;1.65;;;;;;;15.01;70.53;102464.25;5099061;28;20028;-49
2023/03/04 08:56:56;;;;;;;8.77;2.50;;;;;;;15.40;69.99;102467.66;5098861;28;20044;-47
2023/03/04 08:59:22;;;;;;;6.87;1.80;;;;;;;15.16;72.13;102464.25;5094028;28;20096;-51
2023/03/04 09:01:48;;;;;;;8.35;2.13;;;;;;;15.82;70.71;102462.59;5095694;28;20104;-50
2023/03/04 09:04:13;;;;;;;11.53;2.50;;;;;;;15.70;70.89;102464.94;5098373;28;20036;-49
2023/03/04 09:06:38;;;;;;;14.47;2.23;;;;;;;16.01;69.74;102461.97;5099741;28;20307;-55
2023/03/04 09:09:04;;;;;;;7.30;1.80;;;;;;;16.69;67.08;102452.59;5100599;28;20031;-51
2023/03/04 09:11:30;;;;;;;10.05;1.50;;;;;;;16.93;66.28;102455.84;5097791;28;20050;-53
2023/03/04 09:13:56;;;;;;;4.85;1.67;;;;;;;17.12;65.19;102450.78;5096310;28;20044;-51
2023/03/04 09:16:22;;;;;;;5.20;1.60;;;;;;;16.97;63.94;102454.41;5097408;28;20050;-51
2023/03/04 09:18:48;;;;;;;3.53;1.45;;;;;;;16.83;64.67;102452.66;5100478;28;20056;-47
2023/03/04 09:21:14;;;;;;;4.67;1.80;;;;;;;17.11;64.22;102447.25;5096176;28;20028;-52
2023/03/04 09:23:40;;;;;;;7.18;1.38;;;;;;;17.48;63.81;102449.69;5095882;28;20285;-51
2023/03/04 09:26:18;;;;;;;4.87;1.40;;;;;;;17.58;61.95;102439.34;5099155;28;20044;-50
2023/03/04 09:28:43;;;;;;;10.77;1.80;;;;;;;17.56;62.23;102444.13;5095374;28;20261;-56
2023/03/04 09:31:13;;;;;;;7.32;1.75;;;;;;;17.65;62.00;102454.75;5094056;28;20297;-51
2023/03/04 09:33:41;;;;;;;8.80;2.60;;;;;;;16.81;63.11;102443.91;5096875;28;20059;-53
2023/03/04 09:36:12;;;;;;;7.50;2.43;;;;;;;16.98;63.11;102448.00;5094594;28;20277;-50
2023/03/04 09:38:38;;;;;;;9.87;2.23;;;;;;;17.15;62.93;102445.81;5095500;28;20269;-54
2023/03/04 09:41:07;;;;;;;3.25;1.70;;;;;;;16.57;63.89;102446.88;5093163;28;20745;-52
2023/03/04 09:43:34;;;;;;;4.87;1.80;;;;;;;16.58;64.87;102439.59;5097503;28;20070;-49
2023/03/04 09:46:05;;;;;;;;;;;;;;;16.76;65.84;102452.63;5097935;28;20269;-56
2023/03/04 09:48:42;;;;;;;8.23;2.20;;;;;;;16.55;67.28;102443.56;5097348;28;19913;-53
2023/03/04 09:51:18;;;;;;;5.00;1.40;;;;;;;15.59;74.24;102447.41;5098174;28;20328;-53
2023/03/04 09:54:06;;;;;;;6.40;1.67;;;;;;;16.15;74.32;102441.38;5099434;28;20020;-52
2023/03/04 09:56:34;;;;;;;;;;;;;;;16.58;71.29;102437.75;5094460;28;20043;-51
2023/03/04 09:59:05;;;;;;;;;;;;;;;16.66;70.47;102439.47;5104426;28;19916;-48
2023/03/04 10:01:40;;;;;;;2.73;1.30;;;;;;;17.91;65.74;102443.16;5095461;28;19923;-52
2023/03/04 10:04:25;;;;;;;6.93;1.60;;;;;;;18.26;66.41;102447.59;5100468;28;20305;-55
2023/03/04 10:06:53;;;;;;;3.10;1.10;;;;;;;18.67;64.88;102443.81;5095834;28;20293;-50
2023/03/04 10:09:24;;;;;;;5.33;1.33;;;;;;;19.30;62.92;102447.84;5093087;28;20276;-52
2023/03/04 10:12:10;;;;;;;4.97;1.30;;;;;;;19.69;61.11;102441.59;5101868;28;20331;-48
2023/03/04 10:14:59;;;;;;;2.97;0.93;;;;;;;19.23;60.17;102444.34;5098305;28;20275;-48
2023/03/04 10:17:38;;;;;;;6.80;1.43;;;;;;;17.28;66.67;102446.91;5101552;28;20316;-48
2023/03/04 10:20:17;;;;;;;6.37;1.63;;;;;;;17.60;67.78;102445.38;5093260;28;20497;-53
2023/03/04 10:22:47;;;;;;;5.07;1.40;;;;;;;17.82;67.41;102456.06;5100091;28;20285;-52
2023/03/04 10:25:20;;;;;;;7.07;1.17;;;;;;;17.82;67.86;102445.22;5101683;28;20285;-49
2023/03/04 10:28:01;;;;;;;4.07;1.23;;;;;;;18.41;65.70;102437.38;5099098;28;20275;-52
2023/03/04 10:30:49;;;;;;;5.33;1.30;;;;;;;18.83;63.85;102430.88;5093959;28;20284;-52
2023/03/04 10:33:20;;;;;;;3.73;1.20;;;;;;;19.05;63.08;102432.28;5094003;28;20257;-51
2023/03/04 10:36:03;;;;;;;3.07;1.30;;;;;;;18.98;62.68;102436.03;5093924;28;20280;-46
2023/03/04 10:38:31;;;;;;;4.17;1.37;;;;;;;18.67;62.11;102435.69;5096358;28;20295;-49
2023/03/04 10:40:57;;;;;;;5.93;1.30;;;;;;;19.82;61.09;102433.34;5092493;28;20265;-49
2023/03/04 10:43:24;;;;;;;5.50;1.30;;;;;;;20.75;58.55;102436.38;5095005;28;20284;-52
2023/03/04 10:45:54;;;;;;;3.17;1.25;;;;;;;21.18;57.22;102437.41;5096797;28;20285;-52
2023/03/04 10:48:25;;;;;;;7.43;1.77;;;;;;;22.83;53.59;102430.88;5109170;28;20048;-48
2023/03/04 10:50:51;;;;;;;2.27;0.80;;;;;;;22.65;52.08;102429.13;5099626;28;20261;-49
2023/03/04 10:53:35;;;;;;;4.00;1.08;;;;;;;21.63;52.60;102430.72;5096343;28;20350;-50
2023/03/04 10:56:02;;;;;;;4.07;0.80;;;;;;;20.93;53.91;102423.88;5095681;28;20040;-51
2023/03/04 10:58:28;;;;;;;4.45;1.30;;;;;;;20.26;55.41;102409.06;5097846;28;20096;-51
2023/03/04 11:01:04;;;;;;;3.20;0.85;;;;;;;19.62;56.94;102409.91;5098487;28;20094;-51
2023/03/04 11:03:35;;;;;;;2.15;0.77;;;;;;;19.81;57.26;102407.28;5097252;28;20037;-50
2023/03/04 11:06:21;;;;;;;2.97;1.33;;;;;;;19.04;60.15;102408.94;5093277;28;20036;-50
2023/03/04 11:08:55;;;;;;;1.23;0.70;;;;;;;21.19;56.73;102411.84;5098801;28;20277;-52
2023/03/04 11:11:41;;;;;;;1.30;0.70;;;;;;;22.46;54.23;102411.00;5101189;28;20268;-48
2023/03/04 11:14:21;;;;;;;4.50;1.20;;;;;;;20.88;55.34;102399.25;5098595;28;20340;-52
2023/03/04 11:17:00;;;;;;;5.67;1.10;;;;;;;21.22;54.91;102391.53;5096710;28;20281;-56
2023/03/04 11:19:38;;;;;;;2.77;1.10;;;;;;;21.60;54.02;102401.25;5101467;28;20257;-50
2023/03/04 11:22:04;;;;;;;3.17;1.00;;;;;;;21.29;53.92;102399.59;5095334;28;20282;-53
2023/03/04 11:24:33;;;;;;;2.30;0.75;;;;;;;20.99;54.46;102389.50;5091437;28;20385;-50